createdAt,value
2023-01-18T00:00:46.570Z,13.05
2023-01-18T00:03:13.917Z,9.98
2023-01-18T00:05:41.732Z,13.25
2023-01-18T00:08:19.069Z,14.02
2023-01-18T00:10:45.954Z,13.25
2023-01-18T00:13:13.143Z,13.60
2023-01-18T00:15:39.761Z,11.93
2023-01-18T00:18:06.492Z,16.02
2023-01-18T00:20:33.311Z,14.98
2023-01-18T00:23:01.873Z,14.50
2023-01-18T00:25:29.178Z,14.43
2023-01-18T00:27:56.700Z,13.18
2023-01-18T00:30:26.066Z,15.88
2023-01-18T00:32:55.637Z,13.80
2023-01-18T00:35:22.763Z,13.02
2023-01-18T00:37:50.407Z,14.55
2023-01-18T00:40:17.558Z,15.23
2023-01-18T00:43:02.955Z,10.43
2023-01-18T00:45:29.870Z,14.85
2023-01-18T00:47:56.594Z,13.65
2023-01-18T00:50:23.337Z,14.18
2023-01-18T00:52:50.296Z,12.15
2023-01-18T00:55:17.891Z,11.93
2023-01-18T00:57:44.605Z,11.93
2023-01-18T01:00:15.339Z,14.55
2023-01-18T01:02:42.166Z,12.10
2023-01-18T01:05:39.299Z,11.10
2023-01-18T01:08:07.161Z,9.98
2023-01-18T01:10:34.860Z,13.32
2023-01-18T01:13:20.331Z,10.10
2023-01-18T01:16:05.593Z,11.38
2023-01-18T01:18:51.075Z,10.13
2023-01-18T01:21:36.360Z,14.40
2023-01-18T01:24:21.753Z,9.75
2023-01-18T01:26:48.400Z,8.93
2023-01-18T01:29:16.019Z,11.07
2023-01-18T01:31:43.068Z,8.55
2023-01-18T01:34:09.998Z,9.98
2023-01-18T01:36:36.796Z,11.20
2023-01-18T01:39:03.895Z,10.32
2023-01-18T01:41:32.726Z,8.82
2023-01-18T01:44:03.009Z,12.52
2023-01-18T01:46:35.465Z,12.10
2023-01-18T01:49:09.515Z,10.98
2023-01-18T01:51:42.289Z,10.75
2023-01-18T01:54:14.849Z,9.80
2023-01-18T01:56:45.398Z,7.63
2023-01-18T01:59:12.406Z,9.20
2023-01-18T02:01:40.416Z,8.07
2023-01-18T02:04:07.235Z,8.95
2023-01-18T02:06:35.796Z,8.30
2023-01-18T02:09:04.913Z,9.65
2023-01-18T02:11:31.694Z,7.80
2023-01-18T02:14:01.877Z,11.30
2023-01-18T02:16:59.936Z,9.07
2023-01-18T02:19:55.990Z,10.05
2023-01-18T02:23:01.136Z,9.23
2023-01-18T02:26:08.918Z,9.55
2023-01-18T02:28:39.803Z,7.95
2023-01-18T02:31:26.404Z,11.77
2023-01-18T02:34:27.179Z,13.93
2023-01-18T02:37:12.795Z,9.65
2023-01-18T02:39:52.085Z,8.35
2023-01-18T02:42:39.402Z,7.65
2023-01-18T02:45:31.371Z,11.00
2023-01-18T02:47:58.531Z,8.93
2023-01-18T02:50:27.317Z,9.38
2023-01-18T02:52:54.518Z,10.15
2023-01-18T02:55:34.840Z,8.18
2023-01-18T02:58:34.781Z,7.47
2023-01-18T03:01:12.332Z,6.93
2023-01-18T03:03:41.007Z,10.27
2023-01-18T03:06:08.578Z,9.52
2023-01-18T03:08:47.726Z,10.80
2023-01-18T03:11:18.279Z,8.20
2023-01-18T03:13:56.810Z,10.38
2023-01-18T03:16:26.251Z,6.95
2023-01-18T03:19:01.331Z,10.95
2023-01-18T03:21:48.859Z,6.05
2023-01-18T03:24:16.823Z,6.70
2023-01-18T03:26:47.274Z,8.88
2023-01-18T03:29:34.935Z,9.88
2023-01-18T03:32:29.565Z,7.68
2023-01-18T03:35:03.365Z,8.73
2023-01-18T03:37:32.436Z,7.38
2023-01-18T03:40:04.155Z,8.02
2023-01-18T03:42:37.975Z,10.07
2023-01-18T03:45:30.034Z,9.27
2023-01-18T03:47:56.688Z,9.30
2023-01-18T03:50:29.476Z,10.57
2023-01-18T03:52:59.314Z,9.25
2023-01-18T03:55:43.861Z,8.65
2023-01-18T03:58:12.831Z,10.05
2023-01-18T04:00:40.169Z,11.68
2023-01-18T04:03:07.023Z,9.48
2023-01-18T04:05:35.152Z,8.80
2023-01-18T04:08:01.824Z,9.65
2023-01-18T04:10:28.424Z,8.07
2023-01-18T04:12:55.148Z,10.13
2023-01-18T04:15:21.816Z,6.75
2023-01-18T04:17:53.217Z,7.13
2023-01-18T04:20:20.033Z,9.13
2023-01-18T04:22:52.264Z,7.57
2023-01-18T04:25:19.439Z,9.35
2023-01-18T04:27:46.064Z,11.98
2023-01-18T04:30:13.016Z,9.02
2023-01-18T04:32:40.109Z,8.50
2023-01-18T04:35:07.047Z,11.27
2023-01-18T04:37:34.245Z,7.47
2023-01-18T04:40:01.185Z,8.48
2023-01-18T04:42:27.829Z,7.50
2023-01-18T04:44:54.495Z,8.02
2023-01-18T04:47:21.164Z,8.80
2023-01-18T04:49:50.881Z,8.32
2023-01-18T04:52:19.141Z,6.72
2023-01-18T04:54:45.975Z,10.32
2023-01-18T04:57:12.663Z,8.82
2023-01-18T04:59:39.370Z,8.18
2023-01-18T05:02:06.169Z,9.93
2023-01-18T05:04:32.850Z,8.32
2023-01-18T05:07:02.305Z,8.68
2023-01-18T05:09:29.013Z,6.57
2023-01-18T05:11:55.629Z,6.88
2023-01-18T05:14:22.248Z,8.57
2023-01-18T05:16:48.949Z,7.30
2023-01-18T05:19:16.215Z,8.10
2023-01-18T05:21:42.825Z,6.97
2023-01-18T05:24:09.534Z,9.35
2023-01-18T05:26:36.531Z,9.05
2023-01-18T05:29:03.242Z,8.95
2023-01-18T05:31:29.937Z,9.45
2023-01-18T05:33:57.618Z,8.20
2023-01-18T05:36:24.362Z,9.07
2023-01-18T05:38:50.999Z,12.18
2023-01-18T05:41:18.019Z,7.45
2023-01-18T05:43:44.693Z,9.35
2023-01-18T05:46:11.496Z,7.68
2023-01-18T05:48:38.217Z,9.27
2023-01-18T05:51:09.471Z,8.43
2023-01-18T05:53:36.157Z,10.20
2023-01-18T05:56:05.402Z,7.18
2023-01-18T05:58:32.046Z,8.45
2023-01-18T06:00:58.928Z,8.45
2023-01-18T06:03:25.662Z,10.77
2023-01-18T06:05:52.552Z,11.07
2023-01-18T06:08:22.477Z,8.55
2023-01-18T06:10:56.810Z,9.93
2023-01-18T06:13:24.307Z,10.30
2023-01-18T06:15:52.095Z,9.10
2023-01-18T06:18:18.822Z,10.45
2023-01-18T06:20:45.662Z,7.85
2023-01-18T06:23:12.555Z,10.77
2023-01-18T06:25:39.248Z,8.27
2023-01-18T06:28:06.526Z,10.40
2023-01-18T06:30:34.484Z,8.98
2023-01-18T06:33:06.731Z,7.63
2023-01-18T06:35:34.354Z,10.90
2023-01-18T06:38:01.232Z,14.00
2023-01-18T06:40:34.049Z,11.80
2023-01-18T06:43:01.691Z,9.85
2023-01-18T06:45:29.492Z,13.65
2023-01-18T06:47:56.329Z,11.02
2023-01-18T06:50:23.076Z,11.77
2023-01-18T06:52:49.769Z,7.70
2023-01-18T06:55:16.521Z,10.57
2023-01-18T06:57:43.145Z,9.15
2023-01-18T07:00:11.393Z,11.35
2023-01-18T07:02:38.229Z,10.10
2023-01-18T07:05:08.095Z,11.50
2023-01-18T07:07:34.738Z,8.23
2023-01-18T07:10:01.368Z,9.02
2023-01-18T07:12:27.971Z,8.93
2023-01-18T07:14:54.616Z,9.43
2023-01-18T07:17:24.368Z,8.07
2023-01-18T07:19:51.171Z,8.50
2023-01-18T07:22:17.794Z,7.53
2023-01-18T07:24:45.664Z,8.40
2023-01-18T07:27:12.582Z,10.23
2023-01-18T07:29:39.287Z,9.43
2023-01-18T07:32:05.975Z,9.52
2023-01-18T07:34:32.631Z,8.23
2023-01-18T07:36:59.293Z,8.82
2023-01-18T07:39:25.934Z,9.75
2023-01-18T07:41:52.619Z,9.73
2023-01-18T07:44:19.381Z,8.55
2023-01-18T07:46:46.005Z,7.00
2023-01-18T07:49:12.701Z,10.75
2023-01-18T07:51:39.351Z,7.07
2023-01-18T07:54:06.091Z,6.72
2023-01-18T07:56:32.853Z,8.98
2023-01-18T07:58:59.843Z,10.50
2023-01-18T08:01:26.793Z,8.80
2023-01-18T08:03:54.852Z,7.47
2023-01-18T08:06:25.095Z,9.82
2023-01-18T08:08:52.696Z,10.48
2023-01-18T08:11:19.731Z,5.47
2023-01-18T08:13:48.990Z,5.88
2023-01-18T08:16:16.319Z,11.65
2023-01-18T08:18:45.324Z,8.50
2023-01-18T08:21:13.318Z,7.68
2023-01-18T08:23:40.604Z,7.78
2023-01-18T08:26:08.378Z,8.52
2023-01-18T08:28:35.089Z,11.90
2023-01-18T08:31:08.033Z,7.95
2023-01-18T08:33:40.084Z,10.05
2023-01-18T08:36:10.623Z,7.15
2023-01-18T08:38:37.313Z,7.38
2023-01-18T08:41:04.532Z,5.95
2023-01-18T08:43:31.429Z,8.95
2023-01-18T08:45:58.054Z,6.68
2023-01-18T08:48:24.688Z,7.68
2023-01-18T08:50:51.793Z,7.80
2023-01-18T08:53:18.530Z,10.23
2023-01-18T08:55:45.287Z,10.57
2023-01-18T08:58:12.795Z,6.82
2023-01-18T09:00:39.411Z,8.63
2023-01-18T09:03:06.944Z,7.43
2023-01-18T09:05:35.716Z,9.95
2023-01-18T09:08:03.688Z,7.43
2023-01-18T09:10:30.433Z,9.20
2023-01-18T09:12:57.428Z,9.52
2023-01-18T09:15:24.416Z,7.07
2023-01-18T09:17:51.049Z,11.10
2023-01-18T09:20:19.039Z,8.20
2023-01-18T09:22:48.680Z,7.68
2023-01-18T09:25:18.188Z,6.55
2023-01-18T09:27:46.770Z,9.98
2023-01-18T09:30:16.172Z,9.45
2023-01-18T09:32:43.025Z,9.30
2023-01-18T09:35:10.068Z,7.60
2023-01-18T09:37:36.693Z,7.32
2023-01-18T09:40:07.030Z,8.35
2023-01-18T09:42:37.131Z,8.93
2023-01-18T09:45:04.186Z,7.25
2023-01-18T09:47:40.627Z,7.03
2023-01-18T09:50:17.453Z,11.27
2023-01-18T09:53:06.019Z,8.23
2023-01-18T09:55:40.199Z,10.07
2023-01-18T09:58:36.994Z,8.73
2023-01-18T10:01:16.022Z,9.52
2023-01-18T10:03:56.313Z,10.75
2023-01-18T10:06:30.397Z,8.02
2023-01-18T10:09:07.222Z,9.73
2023-01-18T10:11:47.535Z,6.22
2023-01-18T10:14:33.308Z,12.02
2023-01-18T10:17:03.557Z,8.75
2023-01-18T10:19:31.880Z,8.50
2023-01-18T10:22:28.516Z,10.05
2023-01-18T10:25:26.467Z,7.95
2023-01-18T10:28:16.244Z,12.32
2023-01-18T10:31:23.634Z,7.72
2023-01-18T10:33:54.881Z,9.02
2023-01-18T10:36:33.522Z,9.15
2023-01-18T10:39:02.651Z,10.43
2023-01-18T10:41:34.755Z,8.60
2023-01-18T10:44:01.948Z,10.32
2023-01-18T10:46:29.234Z,6.95
2023-01-18T10:48:59.325Z,8.38
2023-01-18T10:51:36.969Z,9.70
2023-01-18T10:54:29.997Z,10.95
2023-01-18T10:57:05.920Z,12.60
2023-01-18T10:59:39.830Z,8.90
2023-01-18T11:02:29.676Z,9.82
2023-01-18T11:05:00.654Z,13.10
2023-01-18T11:07:28.638Z,13.90
2023-01-18T11:09:59.461Z,11.95
2023-01-18T11:12:38.931Z,9.40
2023-01-18T11:15:14.913Z,12.35
2023-01-18T11:17:46.126Z,12.68
2023-01-18T11:20:23.386Z,13.13
2023-01-18T11:22:54.455Z,12.43
2023-01-18T11:25:21.791Z,11.65
2023-01-18T11:27:49.189Z,13.38
2023-01-18T11:30:25.498Z,21.30
2023-01-18T11:32:52.307Z,12.60
2023-01-18T11:35:30.945Z,10.82
2023-01-18T11:37:59.197Z,10.95
2023-01-18T11:40:32.299Z,10.80
2023-01-18T11:43:04.046Z,10.27
2023-01-18T11:45:33.666Z,8.93
2023-01-18T11:48:08.635Z,12.77
2023-01-18T11:50:43.407Z,11.00
2023-01-18T11:53:13.170Z,10.15
2023-01-18T11:55:46.775Z,11.00
2023-01-18T11:58:28.594Z,11.82
2023-01-18T12:01:09.718Z,9.45
2023-01-18T12:03:53.409Z,11.93
2023-01-18T12:06:27.350Z,12.50
2023-01-18T12:09:16.808Z,11.95
2023-01-18T12:12:17.705Z,11.35
2023-01-18T12:15:18.433Z,15.40
2023-01-18T12:18:13.952Z,11.80
2023-01-18T12:21:06.118Z,13.63
2023-01-18T12:23:54.621Z,10.82
2023-01-18T12:26:30.425Z,13.02
2023-01-18T12:28:59.974Z,14.48
2023-01-18T12:31:49.639Z,13.80
2023-01-18T12:34:27.504Z,12.07
2023-01-18T12:37:11.894Z,13.75
2023-01-18T12:40:03.452Z,11.15
2023-01-18T12:43:05.335Z,13.80
2023-01-18T12:45:57.193Z,13.52
2023-01-18T12:48:42.640Z,10.38
2023-01-18T12:51:14.193Z,13.13
2023-01-18T12:53:59.374Z,13.07
2023-01-18T12:56:32.273Z,11.38
2023-01-18T12:59:01.895Z,14.82
2023-01-18T13:01:37.035Z,10.43
2023-01-18T13:04:14.342Z,15.15
2023-01-18T13:06:42.022Z,14.18
2023-01-18T13:09:19.164Z,13.98
2023-01-18T13:11:45.991Z,12.30
2023-01-18T13:14:27.690Z,13.23
2023-01-18T13:17:18.421Z,14.35
2023-01-18T13:19:54.728Z,12.50
2023-01-18T13:22:29.016Z,13.13
2023-01-18T13:25:23.580Z,14.43
2023-01-18T13:28:11.817Z,12.80
2023-01-18T13:31:06.498Z,12.05
2023-01-18T13:33:39.319Z,13.73
2023-01-18T13:36:08.185Z,9.40
2023-01-18T13:38:48.472Z,13.07
2023-01-18T13:41:17.001Z,13.00
2023-01-18T13:43:43.719Z,16.27
2023-01-18T13:46:10.317Z,11.55
2023-01-18T13:48:54.515Z,10.50
2023-01-18T13:51:39.645Z,10.50
2023-01-18T13:54:08.514Z,9.90
2023-01-18T13:56:37.685Z,11.95
2023-01-18T13:59:20.065Z,10.57
2023-01-18T14:01:51.209Z,12.45
2023-01-18T14:04:32.214Z,10.07
2023-01-18T14:07:02.234Z,11.23
2023-01-18T14:09:44.819Z,9.77
2023-01-18T14:12:12.045Z,10.70
2023-01-18T14:14:57.113Z,10.30
2023-01-18T14:17:25.395Z,11.98
2023-01-18T14:20:25.584Z,9.48
2023-01-18T14:23:17.884Z,13.55
2023-01-18T14:25:50.956Z,9.23
2023-01-18T14:28:34.834Z,14.98
2023-01-18T14:31:04.355Z,9.63
2023-01-18T14:33:35.306Z,10.65
2023-01-18T14:36:02.830Z,11.07
2023-01-18T14:38:32.675Z,10.30
2023-01-18T14:41:06.926Z,12.68
2023-01-18T14:43:41.370Z,7.40
2023-01-18T14:46:17.169Z,12.85
2023-01-18T14:48:48.533Z,8.80
2023-01-18T14:51:26.044Z,9.10
2023-01-18T14:54:02.055Z,8.73
2023-01-18T14:56:32.009Z,9.70
2023-01-18T14:59:16.800Z,8.90
2023-01-18T15:01:54.670Z,10.43
2023-01-18T15:04:33.016Z,8.50
2023-01-18T15:07:02.031Z,16.17
2023-01-18T15:09:31.416Z,10.13
2023-01-18T15:12:00.118Z,8.25
2023-01-18T15:14:29.342Z,14.07
2023-01-18T15:16:56.938Z,10.05
2023-01-18T15:19:41.770Z,9.10
2023-01-18T15:22:11.230Z,10.85
2023-01-18T15:24:40.159Z,13.93
2023-01-18T15:27:12.295Z,11.50
2023-01-18T15:29:39.511Z,9.57
2023-01-18T15:32:15.707Z,11.65
2023-01-18T15:34:45.073Z,10.82
2023-01-18T15:37:26.416Z,11.07
2023-01-18T15:40:03.788Z,13.43
2023-01-18T15:42:38.342Z,7.57
2023-01-18T15:45:12.825Z,10.05
2023-01-18T15:47:39.555Z,12.55
2023-01-18T15:50:16.483Z,10.80
2023-01-18T15:52:45.550Z,11.63
2023-01-18T15:55:34.392Z,11.52
2023-01-18T15:58:09.253Z,10.70
2023-01-18T16:00:41.226Z,8.85
2023-01-18T16:03:25.909Z,11.38
2023-01-18T16:06:11.415Z,9.98
2023-01-18T16:08:56.860Z,10.88
2023-01-18T16:11:32.215Z,13.57
2023-01-18T16:14:00.983Z,9.80
2023-01-18T16:16:29.259Z,11.85
2023-01-18T16:19:05.514Z,9.63
2023-01-18T16:21:42.883Z,10.13
2023-01-18T16:24:15.781Z,12.43
2023-01-18T16:26:43.483Z,11.70
2023-01-18T16:29:10.562Z,11.70
2023-01-18T16:31:41.119Z,14.30
2023-01-18T16:34:18.224Z,16.00
2023-01-18T16:36:44.951Z,12.18
2023-01-18T16:39:11.636Z,12.80
2023-01-18T16:41:38.361Z,14.30
2023-01-18T16:44:05.144Z,16.92
2023-01-18T16:46:33.611Z,16.67
2023-01-18T16:49:00.336Z,12.38
2023-01-18T16:51:28.874Z,14.73
2023-01-18T16:53:55.752Z,11.10
2023-01-18T16:56:22.468Z,15.45
2023-01-18T16:58:49.342Z,12.88
2023-01-18T17:01:16.650Z,16.33
2023-01-18T17:03:43.538Z,13.30
2023-01-18T17:06:16.569Z,13.40
2023-01-18T17:08:43.765Z,13.77
2023-01-18T17:11:12.514Z,13.27
2023-01-18T17:13:40.083Z,15.70
2023-01-18T17:16:12.944Z,15.30
2023-01-18T17:18:39.791Z,15.95
2023-01-18T17:21:10.602Z,17.38
2023-01-18T17:23:39.338Z,17.38
2023-01-18T17:26:13.116Z,13.93
2023-01-18T17:28:39.836Z,13.43
2023-01-18T17:31:06.609Z,15.27
2023-01-18T17:33:36.117Z,12.73
2023-01-18T17:38:49.423Z,14.85
2023-01-18T17:41:27.673Z,17.15
2023-01-18T17:43:55.371Z,14.27
2023-01-18T17:46:22.243Z,23.77
2023-01-18T17:48:49.025Z,18.13
2023-01-18T17:51:16.792Z,17.27
2023-01-18T17:53:43.534Z,14.55
2023-01-18T17:56:12.315Z,14.00
2023-01-18T17:58:39.639Z,18.15
2023-01-18T18:01:10.544Z,18.33
2023-01-18T18:03:43.377Z,17.02
2023-01-18T18:06:11.187Z,15.70
2023-01-18T18:08:39.328Z,13.43
2023-01-18T18:11:10.072Z,14.13
2023-01-18T18:13:37.202Z,13.73
2023-01-18T18:16:04.813Z,15.48
2023-01-18T18:18:31.661Z,20.52
2023-01-18T18:21:03.443Z,16.60
2023-01-18T18:23:30.464Z,23.20
2023-01-18T18:25:57.342Z,18.00
2023-01-18T18:28:25.005Z,21.45
2023-01-18T18:30:51.870Z,17.50
2023-01-18T18:33:19.436Z,18.27
2023-01-18T18:35:50.401Z,16.90
2023-01-18T18:38:23.104Z,18.73
2023-01-18T18:40:50.753Z,13.85
2023-01-18T18:43:17.516Z,17.88
2023-01-18T18:45:44.769Z,20.13
2023-01-18T18:48:13.194Z,15.02
2023-01-18T18:50:40.205Z,16.48
2023-01-18T18:53:14.021Z,15.50
2023-01-18T18:55:40.756Z,17.77
2023-01-18T18:58:07.450Z,15.23
2023-01-18T19:00:34.632Z,17.23
2023-01-18T19:03:02.753Z,19.08
2023-01-18T19:05:30.863Z,15.70
2023-01-18T19:07:57.577Z,19.88
2023-01-18T19:10:27.555Z,17.90
2023-01-18T19:12:55.164Z,19.33
2023-01-18T19:15:21.875Z,16.55
2023-01-18T19:17:50.138Z,15.00
2023-01-18T19:20:20.172Z,16.02
2023-01-18T19:22:47.942Z,16.20
2023-01-18T19:25:18.511Z,17.33
2023-01-18T19:27:45.730Z,19.02
2023-01-18T19:30:18.916Z,24.58
2023-01-18T19:32:47.725Z,29.05
2023-01-18T19:35:14.494Z,21.55
2023-01-18T19:37:41.542Z,19.52
2023-01-18T19:40:09.854Z,23.17
2023-01-18T19:42:36.626Z,17.92
2023-01-18T19:45:04.844Z,22.20
2023-01-18T19:47:31.713Z,18.73
2023-01-18T19:50:03.022Z,19.35
2023-01-18T19:52:30.661Z,19.58
2023-01-18T19:54:59.057Z,17.63
2023-01-18T19:57:26.678Z,22.52
2023-01-18T19:59:53.810Z,17.70
2023-01-18T20:02:22.678Z,21.42
2023-01-18T20:04:49.934Z,21.48
2023-01-18T20:07:16.657Z,20.33
2023-01-18T20:09:43.751Z,23.35
2023-01-18T20:12:12.707Z,28.75
2023-01-18T20:14:41.959Z,26.48
2023-01-18T20:17:10.788Z,27.17
2023-01-18T20:19:37.577Z,21.38
2023-01-18T20:27:16.354Z,33.80
2023-01-18T20:29:43.702Z,50.65
2023-01-18T20:32:16.026Z,41.30
2023-01-18T20:34:44.823Z,35.22
2023-01-18T20:37:12.825Z,41.88
2023-01-18T20:39:39.613Z,33.47
2023-01-18T20:42:06.304Z,27.02
2023-01-18T20:44:32.931Z,31.15
2023-01-18T20:46:59.490Z,23.08
2023-01-18T20:49:37.245Z,26.35
2023-01-18T20:52:05.181Z,25.02
2023-01-18T20:54:32.543Z,22.00
2023-01-18T20:57:00.109Z,21.35
2023-01-18T20:59:26.678Z,21.13
2023-01-18T21:01:53.528Z,30.40
2023-01-18T21:04:20.764Z,33.33
2023-01-18T21:06:49.970Z,25.48
2023-01-18T21:09:16.778Z,21.77
2023-01-18T21:11:43.768Z,21.23
2023-01-18T21:14:10.349Z,20.35
2023-01-18T21:16:36.989Z,19.20
2023-01-18T21:19:03.780Z,18.02
2023-01-18T21:21:31.940Z,19.50
2023-01-18T21:23:59.314Z,22.25
2023-01-18T21:26:25.988Z,19.65
2023-01-18T21:28:52.618Z,23.05
2023-01-18T21:31:19.312Z,24.27
2023-01-18T21:33:45.905Z,17.88
2023-01-18T21:36:14.623Z,19.52
2023-01-18T21:38:41.715Z,20.35
2023-01-18T21:41:27.434Z,20.20
2023-01-18T21:44:12.967Z,17.77
2023-01-18T21:46:45.103Z,22.45
2023-01-18T21:49:47.167Z,23.63
2023-01-18T21:52:37.114Z,21.10
2023-01-18T21:55:03.923Z,21.33
2023-01-18T21:57:30.531Z,22.83
2023-01-18T21:59:57.130Z,22.65
2023-01-18T22:02:23.916Z,22.17
2023-01-18T22:05:05.680Z,23.92
2023-01-18T22:07:34.301Z,21.52
2023-01-18T22:10:05.521Z,23.77
2023-01-18T22:12:35.495Z,25.55
2023-01-18T22:15:04.501Z,30.90
2023-01-18T22:17:31.411Z,25.15
2023-01-18T22:19:58.010Z,27.13
2023-01-18T22:22:24.573Z,26.98
2023-01-18T22:24:51.310Z,21.95
2023-01-18T22:27:18.022Z,22.05
2023-01-18T22:29:44.620Z,19.95
2023-01-18T22:32:11.184Z,18.45
2023-01-18T22:34:37.923Z,20.50
2023-01-18T22:37:05.695Z,22.05
2023-01-18T22:39:32.275Z,19.15
2023-01-18T22:41:58.833Z,21.60
2023-01-18T22:44:25.408Z,23.73
2023-01-18T22:46:52.199Z,28.08
2023-01-18T22:49:18.800Z,25.38
2023-01-18T22:51:45.412Z,23.92
2023-01-18T22:54:11.969Z,23.70
2023-01-18T22:56:38.535Z,22.90
2023-01-18T22:59:05.176Z,19.25
2023-01-18T23:01:32.832Z,19.38
2023-01-18T23:04:01.781Z,23.15
2023-01-18T23:06:29.595Z,20.63
2023-01-18T23:08:56.423Z,22.77
2023-01-18T23:11:26.295Z,18.80
2023-01-18T23:14:16.602Z,24.27
2023-01-18T23:17:02.289Z,20.98
2023-01-18T23:19:30.888Z,22.23
2023-01-18T23:21:58.044Z,24.25
2023-01-18T23:24:24.770Z,23.90
2023-01-18T23:26:51.841Z,22.83
2023-01-18T23:29:18.698Z,22.25
2023-01-18T23:31:45.240Z,24.13
2023-01-18T23:34:11.828Z,20.65
2023-01-18T23:36:38.505Z,20.42
2023-01-18T23:39:23.492Z,23.15
2023-01-18T23:42:08.531Z,16.67
2023-01-18T23:44:53.756Z,27.25
2023-01-18T23:47:39.078Z,23.17
2023-01-18T23:50:24.188Z,23.50
2023-01-18T23:53:09.480Z,19.52
2023-01-18T23:55:36.036Z,19.38
2023-01-18T23:58:03.011Z,19.85
